Time;durP1;ratioP1;P1;durP2;ratioP2;P2;SDS_P1;SDS_P2;PMS_P1;PMS_P2;Temp;Humidity;BMP_temperature;BMP_pressure;BME280_temperature;BME280_humidity;BME280_pressure;Samples;Min_cycle;Max_cycle;Signal;HPM_P1;HPM_P2
2021/10/30 00:01:36;;;;;;;26.43;15.97;;;10.80;99.90;;;;;;5085988;22;20547;-73
2021/10/30 00:04:04;;;;;;;26.83;14.80;;;10.80;99.90;;;;;;5078272;28;20470;-70
2021/10/30 00:06:31;;;;;;;22.80;15.20;;;10.80;99.90;;;;;;5085522;22;20501;-69
2021/10/30 00:08:58;;;;;;;22.13;14.20;;;10.70;99.90;;;;;;5077940;28;20474;-73
2021/10/30 00:11:24;;;;;;;24.87;15.07;;;10.60;99.90;;;;;;5085500;22;20482;-72
2021/10/30 00:13:51;;;;;;;23.97;15.40;;;10.60;99.90;;;;;;5077723;28;20451;-68
2021/10/30 00:16:19;;;;;;;22.60;13.40;;;10.60;99.90;;;;;;5085291;22;20498;-73
2021/10/30 00:18:46;;;;;;;35.40;14.80;;;10.60;99.90;;;;;;5077898;28;20515;-71
2021/10/30 00:21:14;;;;;;;24.90;14.37;;;10.50;99.90;;;;;;5093305;22;20542;-71
2021/10/30 00:23:40;;;;;;;25.97;15.57;;;10.60;99.90;;;;;;5058052;28;20443;-72
2021/10/30 00:28:48;;;;;;;24.20;15.07;;;10.50;99.90;;;;;;5084441;22;20480;-72
2021/10/30 00:31:15;;;;;;;34.83;15.70;;;10.50;99.90;;;;;;5077665;28;20825;-73
2021/10/30 00:33:41;;;;;;;25.80;16.20;;;10.50;99.90;;;;;;5085263;22;20539;-71
2021/10/30 00:36:08;;;;;;;29.10;15.47;;;10.50;99.90;;;;;;5077289;28;20535;-70
2021/10/30 00:38:36;;;;;;;22.17;14.33;;;10.50;99.90;;;;;;5084748;22;20486;-70
2021/10/30 00:41:04;;;;;;;26.60;17.07;;;10.40;99.90;;;;;;5077109;28;20427;-73
2021/10/30 00:43:31;;;;;;;24.50;15.67;;;10.40;99.90;;;;;;5085070;22;20490;-72
2021/10/30 00:45:58;;;;;;;29.33;16.73;;;10.40;99.90;;;;;;5077607;28;20777;-67
2021/10/30 00:48:25;;;;;;;26.13;14.13;;;10.40;99.90;;;;;;5085462;22;20474;-68
2021/10/30 00:50:51;;;;;;;26.83;15.70;;;10.40;99.90;;;;;;5077267;28;20454;-69
2021/10/30 00:53:18;;;;;;;26.30;16.40;;;10.40;99.90;;;;;;5085053;22;20861;-65
2021/10/30 00:55:47;;;;;;;28.40;15.90;;;10.40;99.90;;;;;;5077083;28;20454;-70
2021/10/30 00:58:15;;;;;;;23.27;15.83;;;10.40;99.90;;;;;;5084510;22;20517;-72
2021/10/30 01:00:42;;;;;;;23.80;15.63;;;10.30;99.90;;;;;;5076644;28;20443;-73
2021/10/30 01:03:08;;;;;;;26.97;16.07;;;10.30;99.90;;;;;;5084865;22;20912;-72
2021/10/30 01:05:36;;;;;;;27.30;16.47;;;10.30;99.90;;;;;;5076846;28;20504;-69
2021/10/30 01:08:06;;;;;;;27.13;14.70;;;10.30;99.90;;;;;;5084530;22;20541;-73
2021/10/30 01:10:33;;;;;;;21.77;15.00;;;10.30;99.90;;;;;;5084333;22;20827;-74
2021/10/30 01:13:01;;;;;;;25.90;15.23;;;10.40;99.90;;;;;;5076820;28;20457;-75
2021/10/30 01:15:27;;;;;;;21.97;14.90;;;10.40;99.90;;;;;;5084380;22;20490;-74
2021/10/30 01:17:54;;;;;;;26.73;14.73;;;10.40;99.90;;;;;;5076760;28;20575;-74
2021/10/30 01:20:24;;;;;;;27.80;15.53;;;10.50;99.90;;;;;;5084812;22;20482;-75
2021/10/30 01:22:51;;;;;;;22.17;13.57;;;10.40;99.90;;;;;;5076984;28;20442;-73
2021/10/30 01:25:23;;;;;;;25.70;15.80;;;10.40;99.90;;;;;;5084570;22;20537;-73
2021/10/30 01:27:51;;;;;;;26.43;16.07;;;10.40;99.90;;;;;;5076342;28;20458;-71
2021/10/30 01:30:18;;;;;;;33.03;15.17;;;10.40;99.90;;;;;;5084130;22;20555;-72
2021/10/30 01:32:53;;;;;;;25.57;16.03;;;10.40;99.90;;;;;;5076180;28;20438;-74
2021/10/30 01:35:27;;;;;;;21.60;14.00;;;10.40;99.90;;;;;;5084059;22;20586;-70
2021/10/30 01:37:55;;;;;;;29.50;16.30;;;10.40;99.90;;;;;;5076014;28;20534;-75
2021/10/30 01:40:22;;;;;;;24.50;15.80;;;10.40;99.90;;;;;;5083790;22;20490;-74
2021/10/30 01:42:54;;;;;;;33.63;16.30;;;10.30;99.90;;;;;;5075988;28;20490;-75
2021/10/30 01:45:21;;;;;;;27.60;16.07;;;10.30;99.90;;;;;;5084084;22;20446;-70
2021/10/30 01:47:47;;;;;;;28.87;16.03;;;10.20;99.90;;;;;;5075975;28;20917;-70
2021/10/30 01:52:51;;;;;;;21.33;14.40;;;10.20;99.90;;;;;;5083506;22;20829;-74
2021/10/30 01:55:21;;;;;;;25.37;15.60;;;10.30;99.90;;;;;;5076628;28;20437;-74
2021/10/30 01:57:48;;;;;;;26.73;17.43;;;10.30;99.90;;;;;;5083862;22;20619;-70
2021/10/30 02:00:15;;;;;;;29.17;16.23;;;10.30;99.90;;;;;;5076058;28;20434;-70
2021/10/30 02:02:43;;;;;;;24.00;15.43;;;10.30;99.90;;;;;;5083238;22;20490;-72
2021/10/30 02:05:11;;;;;;;25.30;15.50;;;10.20;99.90;;;;;;5075684;28;20446;-75
2021/10/30 02:07:38;;;;;;;24.67;16.07;;;10.20;99.90;;;;;;5083725;22;20513;-72
2021/10/30 02:10:08;;;;;;;30.30;16.97;;;10.20;99.90;;;;;;5075784;28;20470;-73
2021/10/30 02:12:35;;;;;;;25.23;15.07;;;10.20;99.90;;;;;;5083159;22;20624;-64
2021/10/30 02:15:01;;;;;;;26.07;15.53;;;10.20;99.90;;;;;;5075661;28;20786;-72
2021/10/30 02:17:28;;;;;;;24.53;16.70;;;10.20;99.90;;;;;;5082995;22;20485;-71
2021/10/30 02:19:55;;;;;;;25.00;15.83;;;10.30;99.90;;;;;;5075621;28;20579;-73
2021/10/30 02:22:23;;;;;;;32.50;16.10;;;10.30;99.90;;;;;;5083177;22;20486;-72
2021/10/30 02:24:50;;;;;;;27.07;15.80;;;10.30;99.90;;;;;;5075422;28;20464;-73
2021/10/30 02:27:19;;;;;;;29.30;17.50;;;10.30;99.90;;;;;;5083044;22;20489;-74
2021/10/30 02:29:46;;;;;;;24.60;16.00;;;10.30;99.90;;;;;;5075467;28;20459;-72
2021/10/30 02:32:13;;;;;;;27.87;15.60;;;10.30;99.90;;;;;;5082999;22;20507;-68
2021/10/30 02:34:40;;;;;;;24.20;15.30;;;10.20;99.90;;;;;;5075366;28;20497;-73
2021/10/30 02:37:08;;;;;;;27.80;15.80;;;10.10;99.90;;;;;;5084319;22;20481;-45
2021/10/30 02:39:34;;;;;;;26.70;15.13;;;10.10;99.90;;;;;;5073576;28;20540;-73
2021/10/30 02:42:01;;;;;;;28.63;15.87;;;10.10;99.90;;;;;;5075168;28;20519;-72
2021/10/30 02:44:31;;;;;;;26.80;15.50;;;10.10;99.90;;;;;;5082766;22;20898;-74
2021/10/30 02:46:58;;;;;;;31.50;17.30;;;10.10;99.90;;;;;;5074900;28;20466;-67
2021/10/30 02:49:24;;;;;;;29.03;15.80;;;10.10;99.90;;;;;;5082618;22;20486;-68
2021/10/30 02:51:51;;;;;;;28.33;15.17;;;10.10;99.90;;;;;;5075036;28;20442;-71
2021/10/30 02:54:18;;;;;;;29.03;17.00;;;10.10;99.90;;;;;;5082263;22;20493;-74
2021/10/30 02:56:45;;;;;;;24.53;16.40;;;10.00;99.90;;;;;;5073795;28;20442;-74
2021/10/30 02:59:11;;;;;;;26.13;18.17;;;10.10;99.90;;;;;;5073775;28;20955;-73
2021/10/30 03:01:39;;;;;;;24.47;15.67;;;10.10;99.90;;;;;;5074073;28;20450;-73
2021/10/30 03:04:06;;;;;;;24.37;15.23;;;10.10;99.90;;;;;;5073836;28;20531;-74
2021/10/30 03:06:33;;;;;;;23.87;14.77;;;10.10;99.90;;;;;;5074079;28;20499;-68
2021/10/30 03:09:00;;;;;;;23.27;15.87;;;10.10;99.90;;;;;;5073857;28;20513;-70
2021/10/30 03:11:27;;;;;;;23.37;16.33;;;10.10;99.90;;;;;;5074177;28;20451;-74
2021/10/30 03:13:55;;;;;;;24.77;15.53;;;10.00;99.90;;;;;;5073960;28;20438;-74
2021/10/30 03:16:21;;;;;;;26.17;15.43;;;10.00;99.90;;;;;;5073950;28;20499;-73
2021/10/30 03:18:49;;;;;;;25.67;14.70;;;9.90;99.90;;;;;;5073644;28;20869;-69
2021/10/30 03:21:16;;;;;;;26.37;15.03;;;9.90;99.90;;;;;;5074004;28;20485;-75
2021/10/30 03:23:43;;;;;;;22.57;13.33;;;9.80;99.90;;;;;;5073599;28;20446;-75
2021/10/30 03:26:09;;;;;;;26.23;15.73;;;9.80;99.90;;;;;;5073700;28;20757;-73
2021/10/30 03:28:36;;;;;;;22.87;14.90;;;9.80;99.90;;;;;;5073847;28;20442;-69
2021/10/30 03:31:03;;;;;;;21.67;13.97;;;9.80;99.90;;;;;;5073841;28;20500;-71
2021/10/30 03:33:29;;;;;;;22.23;14.60;;;9.80;99.90;;;;;;5073755;28;20476;-74
2021/10/30 03:35:58;;;;;;;18.67;13.30;;;9.80;99.90;;;;;;5073729;28;20485;-73
2021/10/30 03:38:24;;;;;;;24.77;13.77;;;9.80;99.90;;;;;;5073452;28;20539;-69
2021/10/30 03:40:51;;;;;;;23.70;14.33;;;9.80;99.90;;;;;;5073752;28;20515;-73
2021/10/30 03:43:18;;;;;;;24.27;13.33;;;9.80;99.90;;;;;;5073529;28;20478;-75
2021/10/30 03:45:45;;;;;;;25.77;13.90;;;9.90;99.90;;;;;;5073993;28;20446;-75
2021/10/30 03:48:13;;;;;;;22.00;14.17;;;9.90;99.90;;;;;;5073736;28;20520;-74
2021/10/30 03:50:39;;;;;;;24.60;14.70;;;9.90;99.90;;;;;;5073606;28;20557;-68
2021/10/30 03:53:07;;;;;;;22.07;13.80;;;9.90;99.90;;;;;;5038247;28;1009365;-75
2021/10/30 03:55:34;;;;;;;24.60;14.83;;;9.90;99.90;;;;;;5074741;28;20477;-69
2021/10/30 03:58:01;;;;;;;31.63;14.77;;;9.90;99.90;;;;;;5074808;28;20967;-74
2021/10/30 04:00:28;;;;;;;23.23;14.40;;;10.00;99.90;;;;;;5074497;28;20473;-72
2021/10/30 04:02:55;;;;;;;22.67;14.73;;;10.00;99.90;;;;;;5074267;28;20454;-74
2021/10/30 04:05:22;;;;;;;22.70;14.00;;;10.00;99.90;;;;;;5074234;28;20564;-73
2021/10/30 04:07:49;;;;;;;24.60;14.40;;;10.00;99.90;;;;;;5074437;28;20476;-74
2021/10/30 04:10:17;;;;;;;26.03;13.80;;;10.00;99.90;;;;;;5074452;28;20434;-72
2021/10/30 04:12:44;;;;;;;20.03;13.73;;;10.00;99.90;;;;;;5074705;28;20891;-71
2021/10/30 04:15:11;;;;;;;27.67;14.70;;;10.00;99.90;;;;;;5076533;28;20466;-74
2021/10/30 04:17:37;;;;;;;27.80;16.07;;;9.90;99.90;;;;;;5078120;28;20992;-74
2021/10/30 04:20:05;;;;;;;24.03;13.90;;;9.90;99.90;;;;;;5078084;28;20442;-76
2021/10/30 04:22:32;;;;;;;26.60;16.20;;;10.00;99.90;;;;;;5077845;28;20535;-73
2021/10/30 04:24:59;;;;;;;19.83;11.40;;;9.90;99.90;;;;;;5077904;28;20446;-74
2021/10/30 04:27:27;;;;;;;22.43;13.77;;;9.80;99.90;;;;;;5077856;28;20548;-74
2021/10/30 04:29:54;;;;;;;23.10;13.67;;;9.80;99.90;;;;;;5078147;28;20443;-63
2021/10/30 04:32:20;;;;;;;23.30;15.90;;;9.80;99.90;;;;;;5077760;28;20458;-75
2021/10/30 04:34:49;;;;;;;24.33;14.77;;;9.80;99.90;;;;;;5077771;28;20434;-74
2021/10/30 04:37:16;;;;;;;26.93;14.50;;;9.70;99.90;;;;;;5077629;28;20527;-73
2021/10/30 04:39:45;;;;;;;20.70;13.40;;;9.60;99.90;;;;;;5077678;28;20482;-70
2021/10/30 04:42:13;;;;;;;22.17;15.00;;;9.60;99.90;;;;;;5077526;28;20447;-74
2021/10/30 04:44:41;;;;;;;22.70;15.27;;;9.60;99.90;;;;;;5077586;28;20470;-70
2021/10/30 04:47:09;;;;;;;28.03;15.80;;;9.60;99.90;;;;;;5077397;28;20457;-67
2021/10/30 04:49:37;;;;;;;21.87;15.10;;;9.70;99.90;;;;;;5077200;28;20470;-74
2021/10/30 04:52:04;;;;;;;27.07;14.23;;;9.60;99.90;;;;;;5077224;28;20427;-74
2021/10/30 04:54:31;;;;;;;21.70;13.57;;;9.60;99.90;;;;;;5076875;28;20504;-66
2021/10/30 04:56:58;;;;;;;25.63;14.73;;;9.60;99.90;;;;;;5076898;28;20445;-74
2021/10/30 04:59:24;;;;;;;25.27;14.30;;;9.60;99.90;;;;;;5077075;28;20478;-74
2021/10/30 05:01:52;;;;;;;24.53;14.80;;;9.60;99.90;;;;;;5076938;28;20520;-73
2021/10/30 05:04:19;;;;;;;25.93;13.53;;;9.60;99.90;;;;;;5077130;28;20458;-70
2021/10/30 05:06:46;;;;;;;27.50;14.80;;;9.60;99.90;;;;;;5077032;28;20469;-70
2021/10/30 05:09:13;;;;;;;24.07;16.20;;;9.60;99.90;;;;;;5076349;28;20928;-74
2021/10/30 05:11:39;;;;;;;30.50;15.50;;;9.50;99.90;;;;;;5076838;28;20470;-74
2021/10/30 05:14:06;;;;;;;24.47;13.77;;;9.50;99.90;;;;;;5077099;28;20455;-74
2021/10/30 05:16:33;;;;;;;21.13;13.93;;;9.50;99.90;;;;;;5077184;28;20455;-72
2021/10/30 05:19:01;;;;;;;24.83;14.80;;;9.50;99.90;;;;;;5077093;28;20535;-70
2021/10/30 05:21:28;;;;;;;26.73;14.50;;;9.40;99.90;;;;;;5086348;22;20474;-74
2021/10/30 05:23:56;;;;;;;22.63;13.57;;;9.40;99.90;;;;;;5078009;28;20470;-76
2021/10/30 05:26:23;;;;;;;23.57;15.00;;;9.40;99.90;;;;;;5082897;22;20477;-68
2021/10/30 05:28:49;;;;;;;24.07;14.70;;;9.40;99.90;;;;;;5057741;28;20459;-71
2021/10/30 05:31:16;;;;;;;21.77;13.77;;;9.30;99.90;;;;;;5059849;28;20508;-73
2021/10/30 05:33:43;;;;;;;24.57;14.70;;;9.30;99.90;;;;;;5086228;22;20493;-74
2021/10/30 05:36:12;;;;;;;23.07;14.93;;;9.30;99.90;;;;;;5082224;28;20905;-71
2021/10/30 05:38:44;;;;;;;24.30;13.50;;;9.20;99.90;;;;;;5088600;22;20517;-74
2021/10/30 05:41:11;;;;;;;24.20;14.50;;;9.20;99.90;;;;;;5079660;28;20439;-70
2021/10/30 05:43:41;;;;;;;25.87;12.80;;;9.20;99.90;;;;;;5085961;22;20490;-73
2021/10/30 05:46:11;;;;;;;19.33;13.60;;;9.20;99.90;;;;;;5078234;28;20958;-74
2021/10/30 05:48:38;;;;;;;22.27;13.30;;;9.20;99.90;;;;;;5084162;22;21009;-71
2021/10/30 05:51:06;;;;;;;20.70;13.57;;;9.10;99.90;;;;;;5077144;28;20463;-66
2021/10/30 05:53:35;;;;;;;32.07;13.77;;;9.10;99.90;;;;;;5083803;22;20499;-75
2021/10/30 05:56:01;;;;;;;20.73;12.33;;;9.10;99.90;;;;;;5073225;28;20939;-75
2021/10/30 05:58:28;;;;;;;27.10;16.03;;;9.10;99.90;;;;;;5073212;22;20487;-72
2021/10/30 06:00:55;;;;;;;25.17;14.63;;;9.00;99.90;;;;;;5054614;28;20439;-69
2021/10/30 06:03:23;;;;;;;21.33;13.40;;;9.00;99.90;;;;;;5064878;22;20553;-73
2021/10/30 06:05:50;;;;;;;24.60;14.47;;;9.00;99.90;;;;;;5053648;28;20454;-70
2021/10/30 06:08:17;;;;;;;19.70;13.57;;;9.00;99.90;;;;;;5059501;22;20467;-72
2021/10/30 06:10:45;;;;;;;25.40;12.83;;;9.00;99.90;;;;;;5067508;28;20435;-74
2021/10/30 06:15:38;;;;;;;18.23;13.40;;;9.00;99.90;;;;;;5063869;22;20483;-73
2021/10/30 06:18:05;;;;;;;18.67;13.23;;;9.00;99.90;;;;;;5060755;28;20555;-73
2021/10/30 06:20:32;;;;;;;23.43;13.73;;;9.00;99.90;;;;;;5083780;22;20977;-72
2021/10/30 06:22:59;;;;;;;24.63;14.10;;;8.90;99.90;;;;;;5077345;28;20454;-67
2021/10/30 06:25:26;;;;;;;24.83;13.87;;;8.90;99.90;;;;;;5084708;22;20510;-69
2021/10/30 06:27:55;;;;;;;23.80;13.67;;;8.90;99.90;;;;;;5077635;28;20470;-72
2021/10/30 06:30:23;;;;;;;30.17;14.53;;;8.90;99.90;;;;;;5085859;22;20494;-72
2021/10/30 06:32:51;;;;;;;17.00;13.30;;;8.90;99.90;;;;;;5077628;28;20466;-64
2021/10/30 06:35:18;;;;;;;23.50;14.47;;;8.90;99.90;;;;;;5085171;22;20490;-72
2021/10/30 06:37:44;;;;;;;20.33;12.90;;;8.90;99.90;;;;;;5077595;28;20453;-73
2021/10/30 06:40:13;;;;;;;23.70;14.40;;;8.90;99.90;;;;;;5085429;22;20560;-75
2021/10/30 06:42:40;;;;;;;27.23;14.10;;;8.90;99.90;;;;;;5077493;28;20503;-72
2021/10/30 06:45:09;;;;;;;27.20;16.00;;;8.90;99.90;;;;;;5085923;22;20647;-74
2021/10/30 06:47:36;;;;;;;23.13;14.80;;;9.00;99.90;;;;;;5078035;28;20850;-73
2021/10/30 06:50:19;;;;;;;23.80;13.87;;;9.00;99.90;;;;;;5101221;22;20778;-71
2021/10/30 06:52:48;;;;;;;21.00;13.10;;;9.00;99.90;;;;;;5077399;28;20508;-73
2021/10/30 06:55:15;;;;;;;21.23;13.30;;;9.00;99.90;;;;;;5085225;22;20448;-73
2021/10/30 06:57:42;;;;;;;21.80;12.23;;;9.00;99.90;;;;;;5077303;28;20473;-70
2021/10/30 07:00:14;;;;;;;25.77;13.37;;;9.10;99.90;;;;;;5086545;22;20426;-68
2021/10/30 07:02:42;;;;;;;23.60;13.37;;;9.10;99.90;;;;;;5076406;28;20516;-73
2021/10/30 07:05:09;;;;;;;19.30;14.00;;;9.10;99.90;;;;;;5077828;28;20729;-72
2021/10/30 07:07:36;;;;;;;34.70;13.17;;;9.20;99.90;;;;;;5085750;22;20551;-70
2021/10/30 07:10:04;;;;;;;22.10;13.87;;;9.20;99.90;;;;;;5077669;28;20802;-67
2021/10/30 07:12:34;;;;;;;17.90;11.30;;;9.20;99.90;;;;;;5084967;22;20489;-70
2021/10/30 07:15:00;;;;;;;25.90;13.70;;;9.20;99.90;;;;;;5077715;28;20466;-63
2021/10/30 07:17:28;;;;;;;21.87;13.47;;;9.30;99.90;;;;;;5085101;22;20497;-72
2021/10/30 07:20:00;;;;;;;21.80;12.10;;;9.30;99.90;;;;;;5076762;28;20482;-70
2021/10/30 07:22:27;;;;;;;23.17;13.53;;;9.40;99.90;;;;;;5084956;22;20517;-72
2021/10/30 07:24:55;;;;;;;23.27;13.33;;;9.40;99.90;;;;;;5076867;28;20503;-72
2021/10/30 07:27:22;;;;;;;17.23;11.50;;;9.40;99.90;;;;;;5092478;22;20559;-70
2021/10/30 07:29:49;;;;;;;17.97;12.70;;;9.50;99.90;;;;;;5077084;28;20476;-71
2021/10/30 07:32:17;;;;;;;22.73;12.10;;;9.50;99.90;;;;;;5086421;22;20446;-67
2021/10/30 07:34:47;;;;;;;24.83;12.93;;;9.50;99.90;;;;;;5075573;28;20446;-69
2021/10/30 07:37:13;;;;;;;20.07;12.93;;;9.60;99.90;;;;;;5076927;28;20528;-69
2021/10/30 07:39:40;;;;;;;21.97;12.53;;;9.60;99.90;;;;;;5085301;22;20477;-66
2021/10/30 07:42:09;;;;;;;22.80;13.30;;;9.60;99.90;;;;;;5078402;28;20478;-68
2021/10/30 07:44:38;;;;;;;20.63;12.67;;;9.70;99.90;;;;;;5101137;22;20551;-64
2021/10/30 07:47:05;;;;;;;28.03;13.40;;;9.70;99.90;;;;;;5077657;28;20454;-65
2021/10/30 07:49:32;;;;;;;21.53;13.90;;;9.80;99.90;;;;;;5088109;22;20519;-68
2021/10/30 07:52:01;;;;;;;19.87;12.27;;;9.80;99.90;;;;;;5081762;28;20553;-68
2021/10/30 07:54:29;;;;;;;17.93;12.77;;;9.80;99.90;;;;;;5106195;22;20490;-62
2021/10/30 07:56:56;;;;;;;23.10;13.70;;;9.90;99.90;;;;;;5082005;28;20487;-67
2021/10/30 07:59:23;;;;;;;23.63;13.43;;;10.00;99.90;;;;;;5088969;22;21084;-67
2021/10/30 08:01:50;;;;;;;22.80;13.63;;;10.10;99.90;;;;;;5081458;28;20564;-67
2021/10/30 08:04:17;;;;;;;24.00;14.20;;;10.10;99.90;;;;;;5090244;22;20490;-70
2021/10/30 08:06:44;;;;;;;24.27;13.97;;;10.10;99.90;;;;;;5085655;28;20918;-68
2021/10/30 08:09:13;;;;;;;27.80;15.00;;;10.20;99.90;;;;;;5089706;22;20556;-66
2021/10/30 08:11:40;;;;;;;23.93;13.10;;;10.30;99.90;;;;;;5081513;28;20434;-66
2021/10/30 08:14:07;;;;;;;26.43;13.23;;;10.30;99.90;;;;;;5088869;22;20461;-63
2021/10/30 08:16:34;;;;;;;28.37;13.90;;;10.40;99.90;;;;;;5081226;28;20547;-61
2021/10/30 08:19:01;;;;;;;19.57;12.97;;;10.40;99.90;;;;;;5090206;22;20980;-63
2021/10/30 08:21:28;;;;;;;23.30;13.00;;;10.50;99.90;;;;;;5079658;28;20458;-63
2021/10/30 08:23:55;;;;;;;17.70;12.77;;;10.60;99.90;;;;;;5080950;28;20438;-67
2021/10/30 08:26:23;;;;;;;27.83;13.40;;;10.70;99.90;;;;;;5088704;22;20486;-68
2021/10/30 08:28:50;;;;;;;18.53;12.33;;;10.70;99.90;;;;;;5080885;28;20438;-61
2021/10/30 08:31:17;;;;;;;16.27;10.40;;;10.80;99.90;;;;;;5107040;22;20579;-67
2021/10/30 08:33:44;;;;;;;22.60;14.03;;;10.90;99.90;;;;;;5082602;28;20988;-64
2021/10/30 08:36:11;;;;;;;20.13;12.63;;;10.90;99.90;;;;;;5087871;22;20512;-66
2021/10/30 08:38:37;;;;;;;20.77;13.13;;;11.00;99.90;;;;;;5080600;28;20482;-66
2021/10/30 08:41:05;;;;;;;17.07;12.37;;;11.10;99.90;;;;;;5087795;22;20517;-66
2021/10/30 08:43:34;;;;;;;29.33;13.10;;;11.20;99.90;;;;;;5080299;28;20470;-65
2021/10/30 08:46:01;;;;;;;23.90;12.37;;;11.30;99.90;;;;;;5088819;22;20505;-65
2021/10/30 08:48:31;;;;;;;17.33;12.70;;;11.40;99.90;;;;;;5082358;28;20531;-66
2021/10/30 08:50:59;;;;;;;17.43;11.37;;;11.50;99.90;;;;;;5088685;22;20478;-66
2021/10/30 08:53:26;;;;;;;20.83;11.37;;;11.60;99.90;;;;;;5079767;28;20927;-67
2021/10/30 08:55:54;;;;;;;17.23;11.80;;;11.80;99.90;;;;;;5087575;22;20536;-67
2021/10/30 08:58:21;;;;;;;17.13;11.70;;;11.90;99.90;;;;;;5079517;28;20489;-65
2021/10/30 09:00:51;;;;;;;18.30;11.97;;;12.00;99.90;;;;;;5086748;22;20451;-67
2021/10/30 09:03:19;;;;;;;13.33;9.33;;;12.10;99.90;;;;;;5058832;28;20451;-67
2021/10/30 09:08:18;;;;;;;18.77;11.87;;;12.40;99.90;;;;;;5085213;22;20569;-70
2021/10/30 09:10:47;;;;;;;20.53;11.57;;;12.50;99.90;;;;;;5080169;28;20470;-70
2021/10/30 09:13:15;;;;;;;16.37;10.57;;;12.70;99.90;;;;;;5087882;22;20568;-67
2021/10/30 09:15:43;;;;;;;17.37;11.27;;;12.90;99.90;;;;;;5080494;28;20508;-69
2021/10/30 09:18:29;;;;;;;20.97;11.13;;;13.10;99.90;;;;;;5087339;22;20490;-67
2021/10/30 09:20:56;;;;;;;18.60;11.77;;;13.30;99.90;;;;;;5078340;28;20827;-66
2021/10/30 09:23:27;;;;;;;19.10;11.90;;;13.50;99.90;;;;;;5085850;22;20486;-62
2021/10/30 09:25:56;;;;;;;20.27;12.00;;;14.30;99.90;;;;;;5077861;28;20438;-64
2021/10/30 09:28:23;;;;;;;17.13;11.50;;;16.00;99.90;;;;;;5085183;22;20493;-67
2021/10/30 09:31:04;;;;;;;13.00;10.20;;;17.50;99.90;;;;;;5077228;28;20515;-67
2021/10/30 09:33:34;;;;;;;18.40;11.80;;;19.00;99.90;;;;;;5084344;22;20539;-67
2021/10/30 09:36:10;;;;;;;14.73;11.20;;;20.50;95.10;;;;;;5076421;28;20453;-67
2021/10/30 09:38:38;;;;;;;15.97;11.27;;;21.90;88.70;;;;;;5083984;22;20535;-68
2021/10/30 09:41:21;;;;;;;14.37;11.20;;;23.10;77.20;;;;;;5076197;28;20446;-67
2021/10/30 09:43:57;;;;;;;18.40;10.00;;;23.70;70.90;;;;;;5084168;22;20493;-67
2021/10/30 09:46:24;;;;;;;12.27;9.40;;;24.50;65.70;;;;;;5076126;28;20423;-67
2021/10/30 09:48:57;;;;;;;15.47;11.10;;;25.10;61.80;;;;;;5091864;22;20504;-69
2021/10/30 09:51:34;;;;;;;13.10;10.33;;;25.60;58.00;;;;;;5075943;28;20769;-70
2021/10/30 09:54:01;;;;;;;12.57;10.57;;;25.80;56.60;;;;;;5084002;22;20528;-70
2021/10/30 09:56:40;;;;;;;14.50;11.33;;;25.80;56.30;;;;;;5076065;28;20488;-65
2021/10/30 09:59:12;;;;;;;17.40;11.03;;;26.00;55.20;;;;;;5083908;22;22144;-69
2021/10/30 10:01:39;;;;;;;16.40;10.60;;;26.40;54.20;;;;;;5075757;28;20942;-70
2021/10/30 10:04:10;;;;;;;14.10;11.17;;;26.70;53.00;;;;;;5083390;22;20535;-70
2021/10/30 10:06:37;;;;;;;14.83;11.70;;;26.70;51.70;;;;;;5055759;28;20479;-67
2021/10/30 10:11:32;;;;;;;11.60;10.27;;;26.20;52.10;;;;;;5080181;22;20498;-67
2021/10/30 10:14:00;;;;;;;13.50;10.53;;;26.10;51.90;;;;;;5075050;28;20519;-67
2021/10/30 10:16:27;;;;;;;14.00;10.77;;;25.70;51.90;;;;;;5082988;22;20551;-67
2021/10/30 10:18:55;;;;;;;14.20;11.10;;;25.40;52.90;;;;;;5075422;28;20482;-67
2021/10/30 10:21:26;;;;;;;16.23;10.80;;;25.40;52.90;;;;;;5083321;22;20494;-68
2021/10/30 10:23:54;;;;;;;11.23;9.07;;;25.30;52.80;;;;;;5076560;28;20478;-69
2021/10/30 10:26:31;;;;;;;12.77;10.50;;;25.40;52.80;;;;;;5083650;22;20842;-66
2021/10/30 10:29:02;;;;;;;13.57;10.60;;;25.20;53.00;;;;;;5075407;28;20478;-68
2021/10/30 10:31:29;;;;;;;12.53;9.10;;;24.90;53.30;;;;;;5083272;22;20501;-67
2021/10/30 10:34:10;;;;;;;16.07;10.93;;;25.10;53.20;;;;;;5075454;28;20500;-69
2021/10/30 10:36:40;;;;;;;13.97;11.07;;;25.10;52.80;;;;;;5083317;22;20482;-68
2021/10/30 10:39:18;;;;;;;12.57;10.33;;;25.00;53.50;;;;;;5074930;28;20471;-66
2021/10/30 10:41:59;;;;;;;12.47;10.97;;;24.90;53.00;;;;;;5074832;28;20496;-66
2021/10/30 10:45:03;;;;;;;15.10;11.30;;;24.60;53.10;;;;;;5075069;28;20773;-66
2021/10/30 10:47:53;;;;;;;16.80;11.10;;;24.60;52.90;;;;;;5075097;28;20767;-68
2021/10/30 10:50:25;;;;;;;10.33;9.13;;;24.30;53.10;;;;;;5075279;28;20433;-70
2021/10/30 10:53:17;;;;;;;13.20;10.00;;;23.90;53.70;;;;;;5077401;28;20496;-65
2021/10/30 10:56:16;;;;;;;16.40;11.20;;;23.60;54.10;;;;;;5075270;28;20438;-67
2021/10/30 10:59:19;;;;;;;12.43;10.47;;;23.20;55.00;;;;;;5074817;28;20946;-68
2021/10/30 11:02:19;;;;;;;13.50;11.10;;;22.60;55.40;;;;;;5074808;28;20449;-64
2021/10/30 11:05:26;;;;;;;15.33;10.57;;;21.70;56.70;;;;;;5074758;28;20490;-66
2021/10/30 11:08:34;;;;;;;12.17;10.60;;;20.80;58.30;;;;;;5074794;28;20437;-66
2021/10/30 11:11:16;;;;;;;13.73;10.37;;;19.90;60.20;;;;;;5074874;28;20423;-65
2021/10/30 11:13:56;;;;;;;14.87;10.40;;;19.20;62.10;;;;;;5075176;28;20478;-68
2021/10/30 11:16:28;;;;;;;17.53;10.90;;;18.60;63.90;;;;;;5075133;28;20431;-65
2021/10/30 11:19:07;;;;;;;18.07;11.37;;;18.10;65.70;;;;;;5074927;28;20469;-67
2021/10/30 11:21:37;;;;;;;20.60;11.37;;;17.80;67.60;;;;;;5075193;28;20545;-65
2021/10/30 11:24:17;;;;;;;15.70;11.07;;;17.60;68.70;;;;;;5074835;28;20862;-66
2021/10/30 11:26:45;;;;;;;13.60;10.63;;;17.40;69.50;;;;;;5075092;28;20435;-67
2021/10/30 11:29:13;;;;;;;15.27;11.17;;;17.10;70.70;;;;;;5075128;28;20528;-64
2021/10/30 11:31:41;;;;;;;15.23;11.80;;;17.00;72.00;;;;;;5074809;28;20446;-65
2021/10/30 11:34:11;;;;;;;11.60;9.33;;;16.90;72.80;;;;;;5075060;28;20470;-65
2021/10/30 11:36:40;;;;;;;16.43;11.50;;;16.70;73.60;;;;;;5074992;28;20541;-65
2021/10/30 11:39:09;;;;;;;14.10;10.03;;;16.70;74.40;;;;;;5075095;28;20469;-66
2021/10/30 11:41:39;;;;;;;19.00;11.20;;;16.50;75.10;;;;;;5075013;28;20923;-65
2021/10/30 11:44:07;;;;;;;13.33;9.70;;;16.50;76.50;;;;;;5075089;28;20485;-68
2021/10/30 11:46:38;;;;;;;17.17;11.00;;;16.40;77.50;;;;;;5074904;28;20519;-66
2021/10/30 11:49:05;;;;;;;17.00;11.00;;;16.50;78.10;;;;;;5074921;28;20532;-65
2021/10/30 11:51:41;;;;;;;14.67;9.40;;;16.50;78.50;;;;;;5075361;28;20453;-64
2021/10/30 11:54:11;;;;;;;14.13;10.97;;;16.50;79.20;;;;;;5075205;28;20493;-65
2021/10/30 11:56:40;;;;;;;15.17;11.40;;;16.40;79.70;;;;;;5075439;28;20907;-63
2021/10/30 11:59:08;;;;;;;15.93;10.50;;;16.30;79.90;;;;;;5076104;28;20517;-67
2021/10/30 12:01:36;;;;;;;14.57;9.67;;;16.10;80.00;;;;;;5075323;28;20482;-64
2021/10/30 12:04:12;;;;;;;15.63;10.30;;;16.00;81.20;;;;;;5075530;28;20493;-67
2021/10/30 12:06:42;;;;;;;13.30;9.67;;;15.90;82.60;;;;;;5075193;28;20508;-68
2021/10/30 12:09:17;;;;;;;14.80;11.13;;;15.90;83.40;;;;;;5075897;28;20531;-66
2021/10/30 12:11:46;;;;;;;16.43;10.60;;;16.00;84.10;;;;;;5075955;28;20457;-69
2021/10/30 12:14:13;;;;;;;13.23;9.47;;;16.10;84.20;;;;;;5075699;28;20980;-66
2021/10/30 12:16:40;;;;;;;14.53;10.30;;;16.10;84.70;;;;;;5075482;28;20500;-67
2021/10/30 12:19:06;;;;;;;17.63;10.93;;;16.10;84.90;;;;;;5075419;28;20528;-66
2021/10/30 12:21:37;;;;;;;16.37;11.63;;;16.10;84.80;;;;;;5075280;28;20494;-63
2021/10/30 12:24:08;;;;;;;15.07;10.03;;;16.00;85.30;;;;;;5074763;28;20478;-65
2021/10/30 12:26:56;;;;;;;19.80;11.70;;;16.00;86.40;;;;;;5075116;28;20434;-66
2021/10/30 12:29:27;;;;;;;16.57;11.00;;;16.20;86.80;;;;;;5074696;28;20974;-66
2021/10/30 12:32:05;;;;;;;20.33;12.47;;;16.20;86.60;;;;;;5075124;28;20514;-65
2021/10/30 12:34:34;;;;;;;15.53;11.30;;;16.20;86.50;;;;;;5075573;28;20478;-67
2021/10/30 12:37:04;;;;;;;14.40;10.07;;;16.20;87.40;;;;;;5078199;28;20511;-62
2021/10/30 12:39:30;;;;;;;17.87;11.53;;;16.20;87.80;;;;;;5078215;28;20466;-66
2021/10/30 12:42:00;;;;;;;15.27;10.30;;;16.20;88.10;;;;;;5078638;28;20434;-67
2021/10/30 12:44:30;;;;;;;19.50;11.47;;;16.20;88.90;;;;;;5078338;28;20462;-65
2021/10/30 12:46:59;;;;;;;13.10;10.57;;;16.10;89.00;;;;;;5078445;28;20541;-64
2021/10/30 12:49:28;;;;;;;20.30;12.67;;;16.20;89.10;;;;;;5078460;28;20470;-62
2021/10/30 12:52:07;;;;;;;16.93;11.03;;;16.10;89.60;;;;;;5078354;28;20541;-68
2021/10/30 12:54:35;;;;;;;13.40;10.70;;;16.20;90.00;;;;;;5078299;28;20466;-67